首页
METAR-TAF:

METAR-TAF

机场 :

上海浦东国际机场

上海 / 浦东, 中华人民共和国

纬度: 31-07N, 经度: 121-46E, 海拔: 4米

当前天气观测

该预报发布于44分钟前的05:00 UTC
风速12节,风向东转东北,在北转东北之间变化
温度 18°C
湿度 59%
气压 1021 hPa
能见度10公里或以上
阴天层高于3300英尺

METAR: ZSPD 140500Z 07006MPS 020V090 9999 OVC033 18/10 Q1021 NOSIG

时间: 13:44 (05:44 UTC)

预报

该预报发布于2小时和23分钟前的03:21 UTC
预报有效从14日的 06点(UTC)到 15日的 06点(UTC)
风速8节,风向
能見度: 5000
多云层高于2000英尺
轻雾

TAF: ZSPD 140321Z 1406/1506 08004MPS 5000 BR BKN020 TX19/1406Z TN11/1421Z

超过4000个机场的气象观测和天气预报(METAR&TAF报告)。

可查询的气象台以黄色和红色小点在地图上表示。

将鼠标移到小点上方,可查看气象台名称。

然后点击查看天气观测和预报。

如需切换地图:点击带黑十字的绿色按钮放大地图;点击带横线的绿色按钮缩小地图;或者点击绿色箭头查看邻近地区的地图。


METAR-TAF: